Time;durP1;ratioP1;P1;durP2;ratioP2;P2;SDS_P1;SDS_P2;PMS_P1;PMS_P2;Temp;Humidity;BMP_temperature;BMP_pressure;BME280_temperature;BME280_humidity;BME280_pressure;Samples;Min_cycle;Max_cycle;Signal;HPM_P1;HPM_P2
2022/01/07 00:04:09;;;;;;;7.60;3.20;;;-5.90;99.90;;;;;;4915571;29;20427;-85
2022/01/07 00:06:37;;;;;;;7.63;2.53;;;-5.90;99.90;;;;;;4931510;29;20415;-84
2022/01/07 00:09:04;;;;;;;6.20;2.58;;;-5.90;99.90;;;;;;4936240;29;20441;-87
2022/01/07 00:11:32;;;;;;;6.43;2.50;;;-5.90;99.90;;;;;;4934739;29;20441;-87
2022/01/07 00:14:00;;;;;;;5.47;2.10;;;-5.90;99.90;;;;;;4919440;29;20402;-85
2022/01/07 00:16:27;;;;;;;5.70;2.60;;;-5.90;99.90;;;;;;4931366;29;20404;-86
2022/01/07 00:18:56;;;;;;;5.28;2.30;;;-5.80;99.90;;;;;;4931409;29;20404;-85
2022/01/07 00:21:24;;;;;;;5.57;2.28;;;-5.80;99.90;;;;;;4931471;29;20431;-85
2022/01/07 00:23:51;;;;;;;5.13;1.90;;;-5.90;99.90;;;;;;4916757;29;20408;-86
2022/01/07 00:26:21;;;;;;;5.65;2.10;;;-5.90;99.90;;;;;;4930359;29;20442;-85
2022/01/07 00:28:48;;;;;;;7.70;2.00;;;-5.80;99.90;;;;;;4922224;29;20398;-85
2022/01/07 00:31:16;;;;;;;5.05;1.85;;;-5.80;99.90;;;;;;4934348;29;20892;-86
2022/01/07 00:33:43;;;;;;;5.25;1.90;;;-5.80;99.90;;;;;;4934504;29;20394;-84
2022/01/07 00:36:11;;;;;;;4.65;1.85;;;-5.70;99.90;;;;;;4918526;29;20412;-85
2022/01/07 00:38:39;;;;;;;5.28;1.90;;;-5.60;99.90;;;;;;4934345;29;20494;-86
2022/01/07 00:41:07;;;;;;;6.60;2.00;;;-5.60;99.90;;;;;;4934369;29;20394;-86
2022/01/07 00:43:34;;;;;;;6.75;1.88;;;-5.60;99.90;;;;;;4934386;29;20510;-84
2022/01/07 00:46:02;;;;;;;3.70;1.75;;;-5.60;99.90;;;;;;4935166;29;20394;-84
2022/01/07 00:48:30;;;;;;;3.88;1.85;;;-5.50;99.90;;;;;;4949861;29;20891;-85
2022/01/07 00:50:57;;;;;;;4.00;1.50;;;-5.50;99.90;;;;;;4934254;29;20470;-86
2022/01/07 00:53:25;;;;;;;5.38;2.03;;;-5.50;99.90;;;;;;4944408;28;20399;-86
2022/01/07 00:55:52;;;;;;;5.07;1.80;;;-5.40;99.90;;;;;;4930666;29;20802;-84
2022/01/07 00:58:20;;;;;;;5.28;1.70;;;-5.40;99.90;;;;;;4930668;29;20400;-85
2022/01/07 01:00:47;;;;;;;6.80;1.85;;;-5.40;99.90;;;;;;4930778;29;20403;-86
2022/01/07 01:03:15;;;;;;;5.50;1.83;;;-5.40;99.90;;;;;;4951578;28;20409;-85
2022/01/07 01:05:44;;;;;;;3.30;1.50;;;-5.40;99.90;;;;;;4949701;29;20410;-86
2022/01/07 01:08:12;;;;;;;5.10;1.50;;;-5.30;99.90;;;;;;4934955;29;20410;-85
2022/01/07 01:10:40;;;;;;;5.30;1.60;;;-5.30;99.90;;;;;;4933795;29;20453;-87
2022/01/07 01:13:09;;;;;;;6.13;1.88;;;-5.20;99.90;;;;;;4935078;29;20401;-87
2022/01/07 01:15:36;;;;;;;4.25;1.50;;;-5.20;99.90;;;;;;4933824;29;20390;-87
2022/01/07 01:18:04;;;;;;;4.68;1.75;;;-5.20;99.90;;;;;;4949374;29;20402;-87
2022/01/07 01:20:32;;;;;;;4.22;1.70;;;-5.20;99.90;;;;;;4933502;29;20405;-87
2022/01/07 01:23:00;;;;;;;4.32;1.70;;;-5.20;99.90;;;;;;4933415;29;20398;-84
2022/01/07 01:25:28;;;;;;;4.40;1.58;;;-5.20;99.90;;;;;;4933556;29;20394;-85
2022/01/07 01:27:55;;;;;;;6.22;1.80;;;-5.10;99.90;;;;;;4965515;28;20988;-85
2022/01/07 01:30:27;;;;;;;4.60;1.48;;;-5.10;99.90;;;;;;4956947;28;20461;-87
2022/01/07 01:32:55;;;;;;;3.70;1.50;;;-5.10;99.90;;;;;;4917102;29;20641;-87
2022/01/07 01:35:25;;;;;;;3.72;1.25;;;-5.10;99.90;;;;;;4933590;29;20490;-86
2022/01/07 01:37:52;;;;;;;4.18;1.40;;;-5.10;99.90;;;;;;4949504;28;20398;-86
2022/01/07 01:40:20;;;;;;;4.27;1.30;;;-5.10;99.90;;;;;;4933375;29;20453;-88
2022/01/07 01:42:52;;;;;;;3.28;1.20;;;-5.10;99.90;;;;;;4933444;29;20414;-86
2022/01/07 01:45:20;;;;;;;2.67;1.10;;;-5.10;99.90;;;;;;4931583;29;20469;-87
2022/01/07 01:47:48;;;;;;;4.95;1.20;;;-5.00;99.90;;;;;;4915617;29;20505;-87
2022/01/07 01:50:16;;;;;;;4.10;1.20;;;-5.00;99.90;;;;;;4914473;29;20399;-87
2022/01/07 01:52:47;;;;;;;3.28;1.20;;;-5.00;99.90;;;;;;4930551;29;20890;-87
2022/01/07 01:55:17;;;;;;;4.35;1.40;;;-5.00;99.90;;;;;;4914630;29;20412;-86
2022/01/07 01:57:50;;;;;;;3.40;1.17;;;-5.00;99.90;;;;;;4930888;29;20405;-89
2022/01/07 02:00:19;;;;;;;2.90;1.10;;;-5.00;99.90;;;;;;4949454;29;20410;-85
2022/01/07 02:02:47;;;;;;;3.45;1.30;;;-4.90;99.90;;;;;;4949255;29;20410;-85
2022/01/07 02:05:15;;;;;;;6.70;1.60;;;-4.90;99.90;;;;;;4951370;28;20406;-85
2022/01/07 02:07:43;;;;;;;4.28;1.20;;;-5.00;99.90;;;;;;4921628;29;20406;-85
2022/01/07 02:10:14;;;;;;;3.80;1.10;;;-4.90;99.90;;;;;;4937088;29;20394;-85
2022/01/07 02:12:42;;;;;;;5.00;1.38;;;-4.90;99.90;;;;;;4938849;29;20482;-88
2022/01/07 02:15:11;;;;;;;3.88;1.13;;;-4.90;99.90;;;;;;4952923;29;20402;-85
2022/01/07 02:17:45;;;;;;;5.45;1.13;;;-4.90;99.90;;;;;;4937064;29;20832;-86
2022/01/07 02:20:16;;;;;;;3.83;1.20;;;-4.80;99.90;;;;;;4938002;29;20480;-84
2022/01/07 02:22:44;;;;;;;2.77;0.90;;;-4.80;99.90;;;;;;4937211;29;20408;-85
2022/01/07 02:25:12;;;;;;;4.35;1.20;;;-4.80;99.90;;;;;;4952560;29;20413;-87
2022/01/07 02:27:43;;;;;;;3.13;1.13;;;-4.80;99.90;;;;;;4936662;29;20428;-87
2022/01/07 02:30:17;;;;;;;4.30;1.05;;;-4.80;99.90;;;;;;4937808;29;20406;-88
2022/01/07 02:32:45;;;;;;;6.18;1.30;;;-4.80;99.90;;;;;;4936672;29;20520;-86
2022/01/07 02:35:14;;;;;;;5.00;1.55;;;-4.80;99.90;;;;;;4936656;29;20394;-87
2022/01/07 02:37:42;;;;;;;3.85;1.10;;;-4.80;99.90;;;;;;4936652;29;20505;-85
2022/01/07 02:40:10;;;;;;;4.10;1.13;;;-4.80;99.90;;;;;;4952381;29;20485;-85
2022/01/07 02:42:38;;;;;;;5.85;1.27;;;-4.80;99.90;;;;;;4936426;29;20429;-85
2022/01/07 02:45:08;;;;;;;2.95;1.10;;;-4.80;99.90;;;;;;4952375;28;20910;-85
2022/01/07 02:50:16;;;;;;;5.63;1.10;;;-4.90;99.90;;;;;;4937544;29;20389;-86
2022/01/07 02:52:43;;;;;;;5.32;1.00;;;-4.90;99.90;;;;;;4936286;29;20395;-85
2022/01/07 02:55:11;;;;;;;4.18;1.02;;;-4.90;99.90;;;;;;4936378;29;20888;-86
2022/01/07 02:57:39;;;;;;;3.58;1.10;;;-4.90;99.90;;;;;;4952176;29;20903;-85
2022/01/07 03:00:07;;;;;;;4.68;1.20;;;-5.00;99.90;;;;;;4937303;29;20394;-85
2022/01/07 03:02:35;;;;;;;4.25;1.10;;;-4.90;99.90;;;;;;4951744;29;20406;-86
2022/01/07 03:05:03;;;;;;;7.97;1.35;;;-4.90;99.90;;;;;;4937191;29;20394;-87
2022/01/07 03:07:31;;;;;;;5.07;1.25;;;-5.00;99.90;;;;;;4936541;29;20446;-85
2022/01/07 03:09:58;;;;;;;4.55;1.30;;;-5.00;99.90;;;;;;4936163;29;20397;-86
2022/01/07 03:12:26;;;;;;;5.30;1.10;;;-5.00;99.90;;;;;;4935835;29;20406;-86
2022/01/07 03:14:53;;;;;;;5.28;1.75;;;-5.00;99.90;;;;;;4951963;29;20394;-86
2022/01/07 03:17:20;;;;;;;4.13;1.13;;;-5.10;99.90;;;;;;4934925;29;20441;-86
2022/01/07 03:19:48;;;;;;;4.93;1.25;;;-5.10;99.90;;;;;;4951023;28;20422;-85
2022/01/07 03:22:16;;;;;;;5.63;1.20;;;-5.10;99.90;;;;;;4951569;29;20394;-86
2022/01/07 03:24:43;;;;;;;3.17;1.07;;;-5.10;99.90;;;;;;4951809;29;20413;-88
2022/01/07 03:27:11;;;;;;;3.65;1.30;;;-5.10;99.90;;;;;;4951553;29;20420;-85
2022/01/07 03:29:38;;;;;;;2.95;1.13;;;-5.10;99.90;;;;;;4951582;29;20497;-87
2022/01/07 03:32:10;;;;;;;4.93;1.30;;;-5.10;99.90;;;;;;4951544;29;20730;-87
2022/01/07 03:34:37;;;;;;;3.78;0.90;;;-5.10;99.90;;;;;;4951444;29;20789;-87
2022/01/07 03:37:05;;;;;;;5.18;1.10;;;-5.10;99.90;;;;;;4936624;29;20394;-86
2022/01/07 03:39:32;;;;;;;5.13;1.15;;;-5.10;99.90;;;;;;4936649;29;20759;-87
2022/01/07 03:42:00;;;;;;;5.20;1.20;;;-5.10;99.90;;;;;;4919764;29;20405;-84
2022/01/07 03:44:27;;;;;;;3.90;1.20;;;-5.20;99.90;;;;;;4951338;28;20424;-83
2022/01/07 03:46:55;;;;;;;5.05;1.05;;;-5.20;99.90;;;;;;4936352;29;20426;-86
2022/01/07 03:49:23;;;;;;;3.97;1.08;;;-5.20;99.90;;;;;;4935224;29;20833;-86
2022/01/07 03:51:50;;;;;;;5.25;1.17;;;-5.20;99.90;;;;;;4936327;29;20453;-87
2022/01/07 03:54:18;;;;;;;5.03;1.13;;;-5.20;99.90;;;;;;4951038;29;20398;-87
2022/01/07 03:56:45;;;;;;;3.17;0.85;;;-5.30;99.90;;;;;;4951044;29;20483;-87
2022/01/07 03:59:13;;;;;;;3.15;0.80;;;-5.30;99.90;;;;;;4948123;29;20825;-87
2022/01/07 04:01:41;;;;;;;5.57;1.00;;;-5.30;99.90;;;;;;4928028;29;20394;-87
2022/01/07 04:04:08;;;;;;;3.25;0.98;;;-5.40;99.90;;;;;;4947865;29;20407;-86
2022/01/07 04:06:36;;;;;;;4.67;1.13;;;-5.40;99.90;;;;;;4931862;29;20487;-87
2022/01/07 04:09:04;;;;;;;4.85;1.02;;;-5.40;99.90;;;;;;4931679;29;20411;-86
2022/01/07 04:11:31;;;;;;;3.85;0.95;;;-5.40;99.90;;;;;;4917288;29;20396;-87
2022/01/07 04:13:59;;;;;;;5.47;1.00;;;-5.40;99.90;;;;;;4915864;29;20438;-87
2022/01/07 04:16:26;;;;;;;3.90;1.10;;;-5.40;99.90;;;;;;4931580;29;20407;-87
2022/01/07 04:18:54;;;;;;;7.78;1.02;;;-5.40;99.90;;;;;;4915631;29;20512;-86
2022/01/07 04:21:21;;;;;;;6.68;0.93;;;-5.40;99.90;;;;;;4915740;29;20415;-86
2022/01/07 04:23:49;;;;;;;3.73;1.00;;;-5.50;99.90;;;;;;4947270;29;20415;-86
2022/01/07 04:26:16;;;;;;;3.42;1.00;;;-5.50;99.90;;;;;;4915832;29;20399;-88
2022/01/07 04:28:44;;;;;;;5.18;1.10;;;-5.50;99.90;;;;;;4915825;29;20415;-87
2022/01/07 04:31:11;;;;;;;6.07;1.00;;;-5.50;99.90;;;;;;4915643;29;20459;-87
2022/01/07 04:33:39;;;;;;;4.82;1.20;;;-5.50;99.90;;;;;;4915335;29;20495;-86
2022/01/07 04:36:07;;;;;;;4.10;1.10;;;-5.50;99.90;;;;;;4947189;29;20411;-87
2022/01/07 04:38:34;;;;;;;4.65;0.90;;;-5.50;99.90;;;;;;4931063;29;20431;-87
2022/01/07 04:41:02;;;;;;;4.88;0.80;;;-5.60;99.90;;;;;;4915454;29;20404;-87
2022/01/07 04:43:29;;;;;;;4.70;1.00;;;-5.60;99.90;;;;;;4931026;29;20419;-86
2022/01/07 04:45:57;;;;;;;7.20;1.10;;;-5.60;99.90;;;;;;4946332;29;20769;-87
2022/01/07 04:48:24;;;;;;;4.25;1.35;;;-5.70;99.90;;;;;;4916417;29;20426;-86
2022/01/07 04:50:52;;;;;;;5.82;0.93;;;-5.70;99.90;;;;;;4916420;29;20798;-85
2022/01/07 04:53:20;;;;;;;2.80;0.90;;;-5.80;99.90;;;;;;4915318;29;20937;-85
2022/01/07 04:55:47;;;;;;;5.43;1.17;;;-5.80;99.90;;;;;;4915283;29;20913;-87
2022/01/07 04:58:15;;;;;;;5.25;1.00;;;-5.80;99.90;;;;;;4916420;29;20893;-85
2022/01/07 05:00:44;;;;;;;3.80;1.00;;;-5.80;99.90;;;;;;4928554;29;20480;-88
2022/01/07 05:03:13;;;;;;;4.57;1.00;;;-5.80;99.90;;;;;;4930113;28;20433;-87
2022/01/07 05:05:44;;;;;;;4.90;0.93;;;-5.80;99.90;;;;;;4933951;29;20441;-84
2022/01/07 05:08:11;;;;;;;2.67;0.80;;;-5.90;99.90;;;;;;4933499;29;20414;-83
2022/01/07 05:10:39;;;;;;;5.22;1.17;;;-5.90;99.90;;;;;;4933856;29;20394;-86
2022/01/07 05:13:06;;;;;;;7.22;1.00;;;-5.80;99.90;;;;;;4933815;29;20389;-87
2022/01/07 05:15:35;;;;;;;3.55;1.10;;;-5.90;99.90;;;;;;4934017;29;20394;-87
2022/01/07 05:18:03;;;;;;;3.78;1.10;;;-5.90;99.90;;;;;;4918138;29;20449;-88
2022/01/07 05:20:30;;;;;;;7.35;1.00;;;-6.00;99.90;;;;;;4918032;29;20410;-84
2022/01/07 05:22:58;;;;;;;4.45;1.08;;;-6.00;99.90;;;;;;4933848;29;20432;-85
2022/01/07 05:25:26;;;;;;;3.58;1.08;;;-6.00;99.90;;;;;;4933723;29;20500;-86
2022/01/07 05:27:54;;;;;;;3.27;0.80;;;-6.00;99.90;;;;;;4934875;29;20433;-85
2022/01/07 05:30:22;;;;;;;3.80;0.90;;;-6.00;99.90;;;;;;4949726;29;20498;-87
2022/01/07 05:32:49;;;;;;;3.83;1.15;;;-6.00;99.90;;;;;;4949566;29;20398;-85
2022/01/07 05:35:17;;;;;;;5.03;0.93;;;-6.00;99.90;;;;;;4949247;29;20406;-85
2022/01/07 05:37:44;;;;;;;3.35;0.90;;;-6.00;99.90;;;;;;4930674;29;20410;-86
2022/01/07 05:40:12;;;;;;;3.70;0.93;;;-6.00;99.90;;;;;;4935726;29;20445;-84
2022/01/07 05:42:40;;;;;;;3.40;0.95;;;-6.00;99.90;;;;;;4953513;29;20405;-86
2022/01/07 05:45:08;;;;;;;5.68;0.98;;;-6.00;99.90;;;;;;4953505;29;20433;-85
2022/01/07 05:47:35;;;;;;;3.25;0.90;;;-5.90;99.90;;;;;;4953399;29;20751;-88
2022/01/07 05:50:04;;;;;;;3.58;0.80;;;-5.90;99.90;;;;;;4953486;29;20486;-88
2022/01/07 05:52:32;;;;;;;3.05;0.80;;;-5.90;99.90;;;;;;4953353;29;20402;-85
2022/01/07 05:54:59;;;;;;;2.03;0.73;;;-5.90;99.90;;;;;;4953280;29;20453;-86
2022/01/07 05:57:27;;;;;;;4.68;1.00;;;-5.90;99.90;;;;;;4953243;29;20414;-85
2022/01/07 05:59:55;;;;;;;2.85;0.90;;;-5.90;99.90;;;;;;4969350;28;20402;-85
2022/01/07 06:02:23;;;;;;;3.20;0.80;;;-5.80;99.90;;;;;;4953037;29;20493;-86
2022/01/07 06:04:50;;;;;;;2.53;0.82;;;-5.90;99.90;;;;;;4953181;29;20398;-86
2022/01/07 06:07:19;;;;;;;4.65;0.88;;;-5.90;99.90;;;;;;4952961;29;20453;-84
2022/01/07 06:09:46;;;;;;;4.70;0.95;;;-5.90;99.90;;;;;;4952943;29;20437;-84
2022/01/07 06:12:14;;;;;;;4.10;1.03;;;-5.80;99.90;;;;;;4936765;29;20421;-85
2022/01/07 06:14:41;;;;;;;3.33;0.90;;;-5.80;99.90;;;;;;4918455;29;20423;-83
2022/01/07 06:17:10;;;;;;;4.60;0.90;;;-5.80;99.90;;;;;;4917784;29;20498;-85
2022/01/07 06:19:38;;;;;;;4.90;1.27;;;-5.90;99.90;;;;;;4917007;29;20400;-84
2022/01/07 06:22:09;;;;;;;3.47;0.70;;;-5.90;99.90;;;;;;4917167;29;20877;-85
2022/01/07 06:24:37;;;;;;;5.22;1.17;;;-5.80;99.90;;;;;;4933021;29;20418;-86
2022/01/07 06:27:04;;;;;;;2.17;0.77;;;-5.80;99.90;;;;;;4933154;29;20399;-84
2022/01/07 06:29:32;;;;;;;3.35;1.10;;;-5.80;99.90;;;;;;4917100;29;20411;-84
2022/01/07 06:32:00;;;;;;;2.87;0.80;;;-5.80;99.90;;;;;;4917278;29;20411;-84
2022/01/07 06:34:27;;;;;;;4.38;1.13;;;-5.80;99.90;;;;;;4917291;29;20925;-85
2022/01/07 06:36:58;;;;;;;4.82;1.10;;;-5.80;99.90;;;;;;4917354;29;20407;-85
2022/01/07 06:39:28;;;;;;;3.72;0.82;;;-5.80;99.90;;;;;;4918822;29;20402;-84
2022/01/07 06:41:58;;;;;;;3.88;1.00;;;-5.80;99.90;;;;;;4933148;29;20889;-83
2022/01/07 06:44:26;;;;;;;4.43;1.20;;;-5.80;99.90;;;;;;4917263;29;20489;-84
2022/01/07 06:46:54;;;;;;;4.43;1.15;;;-5.80;99.90;;;;;;4917092;29;20407;-86
2022/01/07 06:49:22;;;;;;;5.15;1.00;;;-5.90;99.90;;;;;;4924447;29;20430;-85
2022/01/07 06:51:51;;;;;;;2.22;0.80;;;-5.90;99.90;;;;;;4934869;29;20405;-86
2022/01/07 06:54:19;;;;;;;4.20;0.90;;;-5.80;99.90;;;;;;4951993;29;20876;-86
2022/01/07 06:56:46;;;;;;;3.63;0.88;;;-5.80;99.90;;;;;;4921041;29;20753;-84
2022/01/07 06:59:14;;;;;;;6.18;0.80;;;-5.80;99.90;;;;;;4932010;29;20908;-86
2022/01/07 07:01:43;;;;;;;3.65;0.80;;;-5.80;99.90;;;;;;4951889;29;20465;-85
2022/01/07 07:04:11;;;;;;;4.20;0.80;;;-5.80;99.90;;;;;;4955197;29;20404;-87
2022/01/07 07:06:38;;;;;;;4.35;0.98;;;-5.80;99.90;;;;;;4954972;29;20699;-84
2022/01/07 07:09:07;;;;;;;2.90;1.02;;;-5.80;99.90;;;;;;4954577;29;20418;-84
2022/01/07 07:11:34;;;;;;;5.68;0.90;;;-5.80;99.90;;;;;;4954910;29;20408;-85
2022/01/07 07:14:02;;;;;;;2.45;0.93;;;-5.80;99.90;;;;;;4958185;28;20415;-85
2022/01/07 07:16:30;;;;;;;5.43;1.00;;;-5.80;99.90;;;;;;4954808;29;20766;-86
2022/01/07 07:18:58;;;;;;;2.03;0.77;;;-5.80;99.90;;;;;;4950294;28;20976;-84
2022/01/07 07:21:25;;;;;;;4.43;1.10;;;-5.80;99.90;;;;;;4954577;29;20735;-83
2022/01/07 07:23:53;;;;;;;6.88;1.00;;;-5.80;99.90;;;;;;4912888;29;20417;-83
2022/01/07 07:26:21;;;;;;;3.60;1.05;;;-5.80;99.90;;;;;;4936853;29;20867;-84
2022/01/07 07:28:48;;;;;;;5.47;1.00;;;-5.80;99.90;;;;;;4954524;29;20415;-85
2022/01/07 07:31:18;;;;;;;5.15;1.00;;;-5.80;99.90;;;;;;4938896;29;20392;-83
2022/01/07 07:36:30;;;;;;;5.47;1.10;;;-5.80;99.90;;;;;;4954451;29;20739;-85
2022/01/07 07:39:08;;;;;;;4.60;0.80;;;-5.80;99.90;;;;;;4938452;29;20408;-84
2022/01/07 07:41:39;;;;;;;5.45;1.08;;;-5.80;99.90;;;;;;4938295;29;20833;-84
2022/01/07 07:44:08;;;;;;;2.40;0.80;;;-5.70;99.90;;;;;;4954337;29;20404;-87
2022/01/07 07:46:37;;;;;;;5.43;1.00;;;-5.70;99.90;;;;;;4954188;29;20412;-85
2022/01/07 07:49:06;;;;;;;4.93;1.00;;;-5.70;99.90;;;;;;4955337;29;20914;-86
2022/01/07 07:51:34;;;;;;;3.60;0.85;;;-5.70;99.90;;;;;;4954249;29;20400;-83
2022/01/07 07:54:02;;;;;;;3.50;0.90;;;-5.70;99.90;;;;;;4954268;29;20496;-84
2022/01/07 07:56:30;;;;;;;4.05;1.08;;;-5.60;99.90;;;;;;4954121;29;20428;-87
2022/01/07 07:58:58;;;;;;;3.90;1.03;;;-5.70;99.90;;;;;;4954529;29;20400;-85
2022/01/07 08:01:26;;;;;;;3.35;0.80;;;-5.60;99.90;;;;;;4938083;29;20906;-84
2022/01/07 08:03:54;;;;;;;5.30;0.90;;;-5.60;99.90;;;;;;4969574;28;20440;-85
2022/01/07 08:06:21;;;;;;;3.50;1.00;;;-5.60;99.90;;;;;;4953960;28;20476;-86
2022/01/07 08:08:49;;;;;;;4.75;1.00;;;-5.60;99.90;;;;;;4935825;29;20851;-86
2022/01/07 08:11:17;;;;;;;5.55;0.95;;;-5.50;99.90;;;;;;4919326;29;20400;-85
2022/01/07 08:16:32;;;;;;;4.20;0.98;;;-5.50;99.90;;;;;;4911239;29;20412;-84
2022/01/07 08:19:00;;;;;;;5.50;1.10;;;-5.50;99.90;;;;;;4958554;28;20419;-84
2022/01/07 08:21:29;;;;;;;4.57;1.10;;;-5.40;99.90;;;;;;4939216;29;20841;-83
2022/01/07 08:23:57;;;;;;;3.60;1.10;;;-5.40;99.90;;;;;;4953319;28;20404;-85
2022/01/07 08:26:25;;;;;;;3.83;1.20;;;-5.40;99.90;;;;;;4934305;29;20485;-86
2022/01/07 08:29:00;;;;;;;4.38;1.02;;;-5.40;99.90;;;;;;4952246;28;20420;-83
2022/01/07 08:36:46;;;;;;;5.20;1.10;;;-5.30;99.90;;;;;;4937300;29;20403;-84
2022/01/07 08:39:13;;;;;;;6.40;1.20;;;-5.30;99.90;;;;;;4937105;29;20521;-83
2022/01/07 08:41:42;;;;;;;5.65;1.13;;;-5.20;99.90;;;;;;4953071;29;20401;-85
2022/01/07 08:44:11;;;;;;;6.68;1.40;;;-5.20;99.90;;;;;;4937368;29;20495;-84
2022/01/07 08:46:39;;;;;;;5.00;1.15;;;-5.20;99.90;;;;;;4968667;28;20597;-83
2022/01/07 08:49:06;;;;;;;4.18;1.45;;;-5.20;99.90;;;;;;4953061;29;20430;-84
2022/01/07 08:51:34;;;;;;;7.13;1.20;;;-5.10;99.90;;;;;;4936725;29;20404;-84
2022/01/07 08:54:03;;;;;;;5.78;1.10;;;-5.10;99.90;;;;;;4952879;29;20906;-85
2022/01/07 08:56:32;;;;;;;4.80;0.93;;;-5.10;99.90;;;;;;4937148;29;20887;-83
2022/01/07 08:59:00;;;;;;;3.50;1.13;;;-5.10;99.90;;;;;;4936835;29;20396;-82
2022/01/07 09:01:28;;;;;;;5.20;1.00;;;-5.00;99.90;;;;;;4952781;29;20407;-84
2022/01/07 09:03:56;;;;;;;3.97;1.10;;;-5.00;99.90;;;;;;4952433;29;20427;-86
2022/01/07 09:06:24;;;;;;;3.45;0.95;;;-5.00;99.90;;;;;;4952666;29;20851;-84
2022/01/07 09:08:51;;;;;;;4.22;1.30;;;-4.90;99.90;;;;;;4952691;29;20412;-82
2022/01/07 09:11:19;;;;;;;5.05;1.20;;;-5.00;99.90;;;;;;4951757;28;20440;-85
2022/01/07 09:13:48;;;;;;;5.07;1.40;;;-4.90;99.90;;;;;;4925528;29;20477;-86
2022/01/07 09:16:16;;;;;;;4.53;1.15;;;-4.90;99.90;;;;;;4953503;29;20481;-85
2022/01/07 09:18:43;;;;;;;5.07;1.30;;;-4.90;99.90;;;;;;4936908;29;20392;-86
2022/01/07 09:21:11;;;;;;;4.23;1.00;;;-4.90;99.90;;;;;;4942847;29;20892;-84
2022/01/07 09:23:41;;;;;;;4.35;1.20;;;-4.80;99.90;;;;;;4935828;29;20394;-84
2022/01/07 09:26:10;;;;;;;5.43;1.10;;;-4.70;99.90;;;;;;4936626;29;20408;-84
2022/01/07 09:28:39;;;;;;;4.60;1.33;;;-4.60;99.90;;;;;;4919880;29;20506;-86
2022/01/07 09:31:06;;;;;;;5.82;1.30;;;-4.60;99.90;;;;;;4953779;28;20859;-86
2022/01/07 09:33:34;;;;;;;4.30;1.08;;;-4.50;99.90;;;;;;4951134;29;20451;-86
2022/01/07 09:36:21;;;;;;;3.60;1.30;;;-4.50;99.90;;;;;;4953553;29;20906;-87
2022/01/07 09:38:48;;;;;;;3.17;1.10;;;-4.40;99.90;;;;;;4952417;29;20404;-84
2022/01/07 09:41:15;;;;;;;5.70;1.08;;;-4.40;99.90;;;;;;4936425;29;20397;-86
2022/01/07 09:43:44;;;;;;;3.72;1.05;;;-4.30;99.90;;;;;;4953437;29;20392;-84
2022/01/07 09:46:14;;;;;;;4.40;1.20;;;-4.20;99.90;;;;;;4936408;29;20411;-84
2022/01/07 09:48:42;;;;;;;3.50;1.00;;;-4.20;99.90;;;;;;4936076;29;20420;-84
2022/01/07 09:51:11;;;;;;;6.50;1.00;;;-4.10;99.90;;;;;;4952382;29;20400;-86
2022/01/07 09:53:39;;;;;;;5.70;1.17;;;-4.10;99.90;;;;;;4920456;29;20521;-83
2022/01/07 09:56:07;;;;;;;3.80;1.17;;;-4.10;99.90;;;;;;4953252;29;20392;-84
2022/01/07 09:58:35;;;;;;;4.65;1.00;;;-4.10;99.90;;;;;;4952169;29;20392;-84
2022/01/07 10:01:09;;;;;;;3.70;1.10;;;-4.00;99.90;;;;;;4936460;29;20396;-86
2022/01/07 10:03:40;;;;;;;5.97;1.30;;;-4.00;99.90;;;;;;4936074;29;20416;-86
2022/01/07 10:06:20;;;;;;;4.65;1.02;;;-3.90;99.90;;;;;;4936398;29;20423;-86
2022/01/07 10:08:59;;;;;;;5.53;1.20;;;-3.90;99.90;;;;;;4953207;29;20455;-86
2022/01/07 10:11:27;;;;;;;6.77;1.10;;;-3.90;99.90;;;;;;4953075;29;20400;-86
2022/01/07 10:14:18;;;;;;;4.03;1.15;;;-3.90;99.90;;;;;;4950916;28;20479;-83
2022/01/07 10:16:50;;;;;;;5.07;1.13;;;-3.80;99.90;;;;;;4952192;29;20488;-85
2022/01/07 10:19:41;;;;;;;5.03;1.00;;;-3.70;99.90;;;;;;4936281;29;20839;-86
2022/01/07 10:22:11;;;;;;;2.97;0.98;;;-3.80;99.90;;;;;;4936076;29;20447;-85
2022/01/07 10:24:54;;;;;;;4.78;1.00;;;-3.80;99.90;;;;;;4951937;29;20407;-86
2022/01/07 10:27:23;;;;;;;3.10;0.90;;;-3.90;99.90;;;;;;4945421;28;20397;-85
2022/01/07 10:29:51;;;;;;;5.90;1.20;;;-3.90;99.90;;;;;;4943701;28;20472;-86
2022/01/07 10:32:30;;;;;;;5.30;1.17;;;-3.80;99.90;;;;;;4934228;29;21009;-85
2022/01/07 10:35:12;;;;;;;3.58;1.20;;;-3.80;99.90;;;;;;4954477;28;20873;-83
2022/01/07 10:37:51;;;;;;;4.35;1.15;;;-3.70;99.90;;;;;;4925885;29;20504;-85
2022/01/07 10:40:33;;;;;;;4.13;1.10;;;-3.50;99.90;;;;;;4925217;29;20471;-85
2022/01/07 10:43:11;;;;;;;6.07;1.17;;;-3.40;99.90;;;;;;4939438;29;20465;-84
2022/01/07 10:45:41;;;;;;;4.53;1.00;;;-3.30;99.90;;;;;;4936380;29;20501;-86
2022/01/07 10:48:09;;;;;;;4.10;1.17;;;-3.30;99.90;;;;;;4937393;28;20937;-86
2022/01/07 10:50:43;;;;;;;5.88;1.08;;;-3.20;99.90;;;;;;4945511;28;20838;-86
2022/01/07 10:53:26;;;;;;;4.27;1.03;;;-3.10;99.90;;;;;;4938581;28;20429;-86
2022/01/07 10:56:14;;;;;;;4.50;1.00;;;-3.10;99.90;;;;;;4964582;28;20438;-86
2022/01/07 10:58:55;;;;;;;3.80;1.00;;;-3.00;99.90;;;;;;4921167;29;20406;-86
2022/01/07 11:01:56;;;;;;;5.53;1.25;;;-3.00;99.90;;;;;;4938219;28;20418;-86
2022/01/07 11:04:26;;;;;;;4.68;0.80;;;-3.00;99.90;;;;;;4909449;29;20409;-87
2022/01/07 11:06:57;;;;;;;6.93;1.02;;;-2.90;99.90;;;;;;4937188;29;20500;-84
2022/01/07 11:09:26;;;;;;;4.88;0.90;;;-2.90;99.90;;;;;;4935571;29;20418;-85
2022/01/07 11:12:00;;;;;;;4.68;0.85;;;-2.90;99.90;;;;;;4919967;29;20410;-84
2022/01/07 11:14:30;;;;;;;3.67;0.93;;;-2.90;99.90;;;;;;4935721;29;20453;-87
2022/01/07 11:17:03;;;;;;;5.38;0.93;;;-2.80;99.90;;;;;;4935687;29;20409;-84
2022/01/07 11:19:35;;;;;;;2.45;0.98;;;-2.80;99.90;;;;;;4935746;29;20398;-84
2022/01/07 11:22:06;;;;;;;3.05;0.90;;;-2.90;99.90;;;;;;4935790;29;20760;-84
2022/01/07 11:24:37;;;;;;;5.15;0.82;;;-3.10;99.90;;;;;;4951576;29;20402;-86
2022/01/07 11:27:06;;;;;;;4.97;0.90;;;-3.20;99.90;;;;;;4921941;29;20508;-85
2022/01/07 11:29:38;;;;;;;4.53;1.10;;;-3.30;99.90;;;;;;4938193;29;20431;-86
2022/01/07 11:32:44;;;;;;;4.75;1.20;;;-3.40;99.90;;;;;;4929422;29;20413;-86
2022/01/07 11:35:20;;;;;;;4.60;1.00;;;-3.40;99.90;;;;;;4923123;29;20412;-86
2022/01/07 11:37:55;;;;;;;3.22;0.80;;;-3.50;99.90;;;;;;4929427;29;20415;-85
2022/01/07 11:40:31;;;;;;;3.92;1.00;;;-3.60;99.90;;;;;;4926755;29;20703;-85
2022/01/07 11:43:01;;;;;;;4.10;0.95;;;-3.60;99.90;;;;;;4948090;29;20503;-85
2022/01/07 11:45:35;;;;;;;2.70;1.00;;;-3.60;99.90;;;;;;4938252;29;20400;-86
2022/01/07 11:48:25;;;;;;;4.05;1.00;;;-3.50;99.90;;;;;;4937440;28;20400;-85
2022/01/07 11:50:56;;;;;;;5.43;1.17;;;-3.50;99.90;;;;;;4937243;29;20418;-85
2022/01/07 11:53:25;;;;;;;4.70;1.13;;;-3.40;99.90;;;;;;4970266;28;20435;-85
2022/01/07 11:55:59;;;;;;;4.40;1.00;;;-3.30;99.90;;;;;;4954196;29;20415;-85
2022/01/07 11:58:45;;;;;;;3.67;0.95;;;-3.10;99.90;;;;;;4954120;29;20475;-84
2022/01/07 12:01:36;;;;;;;3.97;1.10;;;-3.10;99.90;;;;;;4953936;29;20874;-84
2022/01/07 12:04:13;;;;;;;3.65;0.80;;;-2.90;99.90;;;;;;4953317;29;20460;-85
2022/01/07 12:06:41;;;;;;;3.88;1.08;;;-2.90;99.90;;;;;;4951252;28;20478;-85
2022/01/07 12:09:16;;;;;;;4.82;1.00;;;-2.90;99.90;;;;;;4947944;29;20949;-85
2022/01/07 12:11:51;;;;;;;2.53;0.90;;;-3.00;99.90;;;;;;4968387;28;20396;-85
2022/01/07 12:14:27;;;;;;;3.17;0.88;;;-3.10;99.90;;;;;;4953130;29;20559;-85
2022/01/07 12:17:00;;;;;;;4.00;1.00;;;-3.20;99.90;;;;;;4968607;28;20770;-84
2022/01/07 12:19:36;;;;;;;2.85;0.93;;;-3.20;99.90;;;;;;4936533;29;20625;-84
2022/01/07 12:22:11;;;;;;;4.80;1.00;;;-3.10;99.90;;;;;;4953180;29;20392;-84
2022/01/07 12:24:39;;;;;;;4.22;0.90;;;-2.90;99.90;;;;;;4955265;28;20401;-84
2022/01/07 12:27:13;;;;;;;5.40;1.10;;;-2.80;99.90;;;;;;4933957;29;20457;-84
2022/01/07 12:29:43;;;;;;;5.38;1.17;;;-2.70;99.90;;;;;;4946027;29;20925;-84
2022/01/07 12:32:14;;;;;;;4.30;1.10;;;-2.60;99.90;;;;;;4951491;28;20760;-84
2022/01/07 12:34:45;;;;;;;4.63;1.00;;;-2.80;99.90;;;;;;4936318;29;20400;-84
2022/01/07 12:37:17;;;;;;;4.63;1.00;;;-2.80;99.90;;;;;;4952891;29;20419;-85
2022/01/07 12:39:56;;;;;;;3.75;1.10;;;-2.90;99.90;;;;;;4937544;29;20400;-86
2022/01/07 12:42:25;;;;;;;3.77;0.97;;;-3.00;99.90;;;;;;4954378;29;20504;-85
2022/01/07 12:44:57;;;;;;;5.32;1.20;;;-3.10;99.90;;;;;;4963852;28;20694;-85
2022/01/07 12:47:28;;;;;;;5.72;1.00;;;-3.10;99.90;;;;;;4959487;28;20397;-85
2022/01/07 12:50:01;;;;;;;6.03;1.10;;;-3.20;99.90;;;;;;4956744;28;20471;-83
2022/01/07 12:52:29;;;;;;;3.78;1.00;;;-3.20;99.90;;;;;;4928712;29;20405;-85
2022/01/07 12:55:11;;;;;;;5.53;1.38;;;-3.30;99.90;;;;;;4942602;28;20451;-84
2022/01/07 12:57:48;;;;;;;5.00;1.05;;;-3.40;99.90;;;;;;4948579;28;20420;-84
2022/01/07 13:00:27;;;;;;;4.32;1.10;;;-3.40;99.90;;;;;;4951439;29;20388;-85
2022/01/07 13:03:00;;;;;;;3.47;1.10;;;-3.50;99.90;;;;;;4937017;29;20439;-83
2022/01/07 13:05:36;;;;;;;5.90;1.00;;;-3.50;99.90;;;;;;4936890;29;20468;-84
2022/01/07 13:08:12;;;;;;;6.07;1.20;;;-3.50;99.90;;;;;;4936999;29;20432;-84
2022/01/07 13:10:42;;;;;;;3.00;1.00;;;-3.50;99.90;;;;;;4936588;29;20882;-84
2022/01/07 13:13:12;;;;;;;3.80;1.13;;;-3.50;99.90;;;;;;4921231;29;20874;-84
2022/01/07 13:15:54;;;;;;;3.10;0.95;;;-3.60;99.90;;;;;;4920830;29;20483;-85
2022/01/07 13:18:32;;;;;;;3.80;1.10;;;-3.60;99.90;;;;;;4952788;28;20510;-84